Sterling — ZJL6396 — position and weather

sailwx.info

Track history (hours):
 
Tides and Currents Weather Stations Pressure Air Temp Water Temp Dewpoint Dewpoint Depression Visibility Wind Speed Wind Dir Waves Ship Positions

Sterling

Last reported at 2017-Dec-01 14:54 UTC. Time now 2017-Dec-17 21:54 UTC.
Position N 18°25' W 064°36'.
Warning: this ship's position is 16 days out of date.

Length 30 m.

Type: Passenger vessel. MMSI: 378111236.

Date/timePositionNaut miles runAvg speedWind from/ knotsBaromVisibWave heightAir tempDewpointWater temp
2017-Dec-01 14:54N 18°25' W 064°36'2 0.9
2017-Dec-01 12:41N 18°25' W 064°34'2 4.6
2017-Dec-01 12:18N 18°25' W 064°36'2 1.7
2017-Dec-01 11:12N 18°25' W 064°34'3 0.1
2017-Nov-29 20:28N 18°25' W 064°36'4 3.3
2017-Nov-29 19:16N 18°25' W 064°32'4 6.0
2017-Nov-29 18:31N 18°25' W 064°37'014.5
2017-Nov-29 18:29N 18°25' W 064°36'4 0.9
2017-Nov-29 14:17N 18°25' W 064°32'4 1.9
2017-Nov-29 12:20N 18°25' W 064°36'0 0.0
2017-Nov-28 20:29N 18°25' W 064°36'4 3.3
2017-Nov-28 19:17N 18°25' W 064°32'4 4.4
2017-Nov-28 18:27N 18°25' W 064°36'3 0.7
2017-Nov-28 14:18N 18°25' W 064°33'3 0.2
2017-Nov-27 20:28N 18°25' W 064°36'3 2.2
2017-Nov-27 19:13N 18°25' W 064°33'2 3.1
2017-Nov-27 18:27N 18°25' W 064°36'10 2.5
2017-Nov-27 14:34N 18°27' W 064°26'217.2
2017-Nov-27 14:28N 18°27' W 064°28'916.8
2017-Nov-27 13:57N 18°25' W 064°37'1 0.4
2017-Nov-27 12:19N 18°25' W 064°36'3 2.7
2017-Nov-27 11:13N 18°25' W 064°33'0 0.0
2017-Nov-25 14:16N 18°25' W 064°33'3 1.8
2017-Nov-25 12:23N 18°25' W 064°36'0 0.0
2017-Nov-24 20:30N 18°25' W 064°36'4 3.8
2017-Nov-24 19:18N 18°25' W 064°32'4 5.2
2017-Nov-24 18:28N 18°25' W 064°36'4 0.9
2017-Nov-24 14:16N 18°25' W 064°32'4 2.1
2017-Nov-24 12:19N 18°25' W 064°36'4 3.5
2017-Nov-24 11:14N 18°25' W 064°32'4 0.2
2017-Nov-23 20:28N 18°25' W 064°36'4 3.6
2017-Nov-23 19:18N 18°25' W 064°32'4 4.3
2017-Nov-23 18:27N 18°25' W 064°36'3 0.6
2017-Nov-23 14:16N 18°25' W 064°33'3 1.8
2017-Nov-23 12:22N 18°25' W 064°36'0 0.0
2017-Nov-22 20:27N 18°25' W 064°36'3 2.8
2017-Nov-22 19:16N 18°25' W 064°33'  
Track history (hours):
 
Tides and Currents Weather Stations Pressure Air Temp Water Temp Dewpoint Dewpoint Depression Visibility Wind Speed Wind Dir Waves Ship Positions

Sterling

Last reported at 2017-Dec-01 14:54 UTC. Time now 2017-Dec-17 21:54 UTC.
Position N 18°25' W 064°36'.
Warning: this ship's position is 16 days out of date.

Length 30 m.

Type: Passenger vessel. MMSI: 378111236.

Date/timePositionNaut miles runAvg speedWind from/ knotsBaromVisibWave heightAir tempDewpointWater temp
2017-Dec-01 14:54N 18°25' W 064°36'2 0.9
2017-Dec-01 12:41N 18°25' W 064°34'2 4.6
2017-Dec-01 12:18N 18°25' W 064°36'2 1.7
2017-Dec-01 11:12N 18°25' W 064°34'3 0.1
2017-Nov-29 20:28N 18°25' W 064°36'4 3.3
2017-Nov-29 19:16N 18°25' W 064°32'4 6.0
2017-Nov-29 18:31N 18°25' W 064°37'014.5
2017-Nov-29 18:29N 18°25' W 064°36'4 0.9
2017-Nov-29 14:17N 18°25' W 064°32'4 1.9
2017-Nov-29 12:20N 18°25' W 064°36'0 0.0
2017-Nov-28 20:29N 18°25' W 064°36'4 3.3
2017-Nov-28 19:17N 18°25' W 064°32'4 4.4
2017-Nov-28 18:27N 18°25' W 064°36'3 0.7
2017-Nov-28 14:18N 18°25' W 064°33'3 0.2
2017-Nov-27 20:28N 18°25' W 064°36'3 2.2
2017-Nov-27 19:13N 18°25' W 064°33'2 3.1
2017-Nov-27 18:27N 18°25' W 064°36'10 2.5
2017-Nov-27 14:34N 18°27' W 064°26'217.2
2017-Nov-27 14:28N 18°27' W 064°28'916.8
2017-Nov-27 13:57N 18°25' W 064°37'1 0.4
2017-Nov-27 12:19N 18°25' W 064°36'3 2.7
2017-Nov-27 11:13N 18°25' W 064°33'0 0.0
2017-Nov-25 14:16N 18°25' W 064°33'3 1.8
2017-Nov-25 12:23N 18°25' W 064°36'0 0.0
2017-Nov-24 20:30N 18°25' W 064°36'4 3.8
2017-Nov-24 19:18N 18°25' W 064°32'4 5.2
2017-Nov-24 18:28N 18°25' W 064°36'4 0.9
2017-Nov-24 14:16N 18°25' W 064°32'4 2.1
2017-Nov-24 12:19N 18°25' W 064°36'4 3.5
2017-Nov-24 11:14N 18°25' W 064°32'4 0.2
2017-Nov-23 20:28N 18°25' W 064°36'4 3.6
2017-Nov-23 19:18N 18°25' W 064°32'4 4.3
2017-Nov-23 18:27N 18°25' W 064°36'3 0.6
2017-Nov-23 14:16N 18°25' W 064°33'3 1.8
2017-Nov-23 12:22N 18°25' W 064°36'0 0.0
2017-Nov-22 20:27N 18°25' W 064°36'3 2.8
2017-Nov-22 19:16N 18°25' W 064°33'  

Dump ship's entire track history